sensor_id;sensor_type;location;lat;lon;timestamp;pressure;altitude;pressure_sealevel;temperature;humidity
60654;BME280;46476;53.614;10.048;2022-07-06T00:00:48;101911.75;;;20.14;49.94
60654;BME280;46476;53.614;10.048;2022-07-06T00:03:13;101910.72;;;20.15;49.63
60654;BME280;46476;53.614;10.048;2022-07-06T00:05:38;101909.00;;;20.14;49.74
60654;BME280;46476;53.614;10.048;2022-07-06T00:08:04;101919.31;;;20.12;49.76
60654;BME280;46476;53.614;10.048;2022-07-06T00:10:29;101910.41;;;20.10;49.64
60654;BME280;46476;53.614;10.048;2022-07-06T00:12:54;101914.41;;;20.07;49.98
60654;BME280;46476;53.614;10.048;2022-07-06T00:15:20;101913.53;;;20.07;50.01
60654;BME280;46476;53.614;10.048;2022-07-06T00:17:45;101906.16;;;20.07;49.65
60654;BME280;46476;53.614;10.048;2022-07-06T00:20:10;101923.88;;;20.05;50.04
60654;BME280;46476;53.614;10.048;2022-07-06T00:22:36;101919.22;;;20.05;50.01
60654;BME280;46476;53.614;10.048;2022-07-06T00:25:01;101914.94;;;20.03;50.36
60654;BME280;46476;53.614;10.048;2022-07-06T00:27:26;101915.97;;;20.02;50.06
60654;BME280;46476;53.614;10.048;2022-07-06T00:29:52;101919.59;;;20.02;49.93
60654;BME280;46476;53.614;10.048;2022-07-06T00:32:17;101921.84;;;19.99;50.09
60654;BME280;46476;53.614;10.048;2022-07-06T00:34:42;101913.63;;;19.99;50.04
60654;BME280;46476;53.614;10.048;2022-07-06T00:37:07;101914.00;;;19.95;50.11
60654;BME280;46476;53.614;10.048;2022-07-06T00:39:33;101914.66;;;19.98;50.59
60654;BME280;46476;53.614;10.048;2022-07-06T00:41:59;101915.53;;;19.98;50.26
60654;BME280;46476;53.614;10.048;2022-07-06T00:44:24;101913.63;;;19.99;50.16
60654;BME280;46476;53.614;10.048;2022-07-06T00:46:50;101909.81;;;20.00;50.25
60654;BME280;46476;53.614;10.048;2022-07-06T00:49:15;101906.88;;;20.01;50.64
60654;BME280;46476;53.614;10.048;2022-07-06T00:51:59;101900.72;;;19.99;50.21
60654;BME280;46476;53.614;10.048;2022-07-06T00:54:28;101907.28;;;19.98;50.13
60654;BME280;46476;53.614;10.048;2022-07-06T00:56:57;101914.66;;;19.98;50.13
60654;BME280;46476;53.614;10.048;2022-07-06T00:59:23;101912.94;;;19.97;50.18
60654;BME280;46476;53.614;10.048;2022-07-06T01:01:49;101914.84;;;19.96;50.20
60654;BME280;46476;53.614;10.048;2022-07-06T01:04:15;101909.16;;;19.98;50.20
60654;BME280;46476;53.614;10.048;2022-07-06T01:06:40;101919.09;;;19.99;50.40
60654;BME280;46476;53.614;10.048;2022-07-06T01:09:06;101918.28;;;19.98;50.11
60654;BME280;46476;53.614;10.048;2022-07-06T01:11:31;101908.50;;;19.95;50.17
60654;BME280;46476;53.614;10.048;2022-07-06T01:13:57;101906.97;;;19.93;50.07
60654;BME280;46476;53.614;10.048;2022-07-06T01:16:24;101910.94;;;19.90;50.23
60654;BME280;46476;53.614;10.048;2022-07-06T01:18:50;101913.00;;;19.88;50.15
60654;BME280;46476;53.614;10.048;2022-07-06T01:21:15;101909.22;;;19.89;49.80
60654;BME280;46476;53.614;10.048;2022-07-06T01:23:46;101909.22;;;19.89;50.11
60654;BME280;46476;53.614;10.048;2022-07-06T01:26:15;101905.66;;;19.89;50.05
60654;BME280;46476;53.614;10.048;2022-07-06T01:28:41;101905.44;;;19.90;50.07
60654;BME280;46476;53.614;10.048;2022-07-06T01:31:14;101906.47;;;19.89;50.03
60654;BME280;46476;53.614;10.048;2022-07-06T01:33:39;101909.22;;;19.89;50.06
60654;BME280;46476;53.614;10.048;2022-07-06T01:36:04;101908.75;;;19.86;50.08
60654;BME280;46476;53.614;10.048;2022-07-06T01:38:30;101904.97;;;19.87;50.26
60654;BME280;46476;53.614;10.048;2022-07-06T01:40:55;101904.78;;;19.88;50.10
60654;BME280;46476;53.614;10.048;2022-07-06T01:43:20;101897.56;;;19.87;50.18
60654;BME280;46476;53.614;10.048;2022-07-06T01:45:46;101895.69;;;19.88;50.25
60654;BME280;46476;53.614;10.048;2022-07-06T01:48:11;101902.03;;;19.88;50.09
60654;BME280;46476;53.614;10.048;2022-07-06T01:50:36;101887.78;;;19.85;49.91
60654;BME280;46476;53.614;10.048;2022-07-06T01:53:02;101893.47;;;19.83;50.39
60654;BME280;46476;53.614;10.048;2022-07-06T01:55:27;101895.19;;;19.84;50.34
60654;BME280;46476;53.614;10.048;2022-07-06T01:57:52;101890.38;;;19.86;50.12
60654;BME280;46476;53.614;10.048;2022-07-06T02:00:18;101894.16;;;19.85;50.14
60654;BME280;46476;53.614;10.048;2022-07-06T02:02:43;101900.88;;;19.83;49.89
60654;BME280;46476;53.614;10.048;2022-07-06T02:05:08;101898.13;;;19.83;49.89
60654;BME280;46476;53.614;10.048;2022-07-06T02:07:34;101903.63;;;19.83;50.42
60654;BME280;46476;53.614;10.048;2022-07-06T02:09:59;101898.13;;;19.83;50.29
60654;BME280;46476;53.614;10.048;2022-07-06T02:12:24;101908.25;;;19.82;50.32
60654;BME280;46476;53.614;10.048;2022-07-06T02:14:50;101908.25;;;19.82;50.21
60654;BME280;46476;53.614;10.048;2022-07-06T02:17:15;101903.78;;;19.81;50.39
60654;BME280;46476;53.614;10.048;2022-07-06T02:19:40;101910.16;;;19.82;50.33
60654;BME280;46476;53.614;10.048;2022-07-06T02:22:05;101917.53;;;19.81;50.90
60654;BME280;46476;53.614;10.048;2022-07-06T02:24:31;101921.16;;;19.82;50.53
60654;BME280;46476;53.614;10.048;2022-07-06T02:26:56;101906.22;;;19.76;50.72
60654;BME280;46476;53.614;10.048;2022-07-06T02:29:21;101902.25;;;19.78;51.04
60654;BME280;46476;53.614;10.048;2022-07-06T02:31:47;101907.25;;;19.75;51.42
60654;BME280;46476;53.614;10.048;2022-07-06T02:34:12;101906.38;;;19.74;51.51
60654;BME280;46476;53.614;10.048;2022-07-06T02:36:37;101907.25;;;19.75;51.51
60654;BME280;46476;53.614;10.048;2022-07-06T02:39:03;101903.66;;;19.74;51.63
60654;BME280;46476;53.614;10.048;2022-07-06T02:41:28;101902.81;;;19.74;51.88
60654;BME280;46476;53.614;10.048;2022-07-06T02:43:53;101900.44;;;19.71;51.61
60654;BME280;46476;53.614;10.048;2022-07-06T02:46:18;101903.53;;;19.68;51.86
60654;BME280;46476;53.614;10.048;2022-07-06T02:48:44;101903.53;;;19.68;52.40
60654;BME280;46476;53.614;10.048;2022-07-06T02:51:09;101897.19;;;19.67;52.22
60654;BME280;46476;53.614;10.048;2022-07-06T02:53:34;101885.53;;;19.65;52.27
60654;BME280;46476;53.614;10.048;2022-07-06T02:56:00;101885.91;;;19.62;51.90
60654;BME280;46476;53.614;10.048;2022-07-06T02:58:25;101887.97;;;19.60;52.41
60654;BME280;46476;53.614;10.048;2022-07-06T03:00:50;101884.38;;;19.59;52.29
60654;BME280;46476;53.614;10.048;2022-07-06T03:03:16;101889.19;;;19.57;52.01
60654;BME280;46476;53.614;10.048;2022-07-06T03:05:41;101889.19;;;19.57;52.02
60654;BME280;46476;53.614;10.048;2022-07-06T03:08:06;101892.97;;;19.56;52.10
60654;BME280;46476;53.614;10.048;2022-07-06T03:10:32;101896.78;;;19.55;51.87
60654;BME280;46476;53.614;10.048;2022-07-06T03:12:57;101898.47;;;19.56;51.66
60654;BME280;46476;53.614;10.048;2022-07-06T03:15:22;101911.34;;;19.56;51.63
60654;BME280;46476;53.614;10.048;2022-07-06T03:17:48;101902.28;;;19.55;51.49
60654;BME280;46476;53.614;10.048;2022-07-06T03:20:13;101899.13;;;19.58;51.23
60654;BME280;46476;53.614;10.048;2022-07-06T03:22:39;101906.34;;;19.59;50.91
60654;BME280;46476;53.614;10.048;2022-07-06T03:25:05;101901.69;;;19.60;51.05
60654;BME280;46476;53.614;10.048;2022-07-06T03:27:30;101907.19;;;19.60;50.44
60654;BME280;46476;53.614;10.048;2022-07-06T03:29:56;101913.91;;;19.57;51.00
60654;BME280;46476;53.614;10.048;2022-07-06T03:32:21;101900.38;;;19.56;50.57
60654;BME280;46476;53.614;10.048;2022-07-06T03:34:47;101913.06;;;19.57;51.11
60654;BME280;46476;53.614;10.048;2022-07-06T03:37:12;101900.16;;;19.57;51.06
60654;BME280;46476;53.614;10.048;2022-07-06T03:39:37;101908.41;;;19.57;51.07
60654;BME280;46476;53.614;10.048;2022-07-06T03:42:03;101909.09;;;19.59;51.26
60654;BME280;46476;53.614;10.048;2022-07-06T03:44:28;101909.44;;;19.56;51.31
60654;BME280;46476;53.614;10.048;2022-07-06T03:46:53;101910.66;;;19.54;51.50
60654;BME280;46476;53.614;10.048;2022-07-06T03:49:21;101918.06;;;19.53;51.57
60654;BME280;46476;53.614;10.048;2022-07-06T03:51:46;101917.88;;;19.55;51.66
60654;BME280;46476;53.614;10.048;2022-07-06T03:54:12;101909.44;;;19.56;51.66
60654;BME280;46476;53.614;10.048;2022-07-06T03:56:38;101905.66;;;19.57;51.61
60654;BME280;46476;53.614;10.048;2022-07-06T03:59:04;101914.09;;;19.56;51.75
60654;BME280;46476;53.614;10.048;2022-07-06T04:01:29;101910.31;;;19.57;51.53
60654;BME280;46476;53.614;10.048;2022-07-06T04:03:55;101909.28;;;19.58;51.72
60654;BME280;46476;53.614;10.048;2022-07-06T04:06:20;101929.38;;;19.58;51.92
60654;BME280;46476;53.614;10.048;2022-07-06T04:08:46;101931.44;;;19.56;51.89
60654;BME280;46476;53.614;10.048;2022-07-06T04:11:11;101945.16;;;19.56;52.44
60654;BME280;46476;53.614;10.048;2022-07-06T04:13:37;101938.81;;;19.56;52.99
60654;BME280;46476;53.614;10.048;2022-07-06T04:16:04;101933.50;;;19.54;53.31
60654;BME280;46476;53.614;10.048;2022-07-06T04:18:29;101924.97;;;19.49;53.66
60654;BME280;46476;53.614;10.048;2022-07-06T04:20:55;101924.66;;;19.44;53.89
60654;BME280;46476;53.614;10.048;2022-07-06T04:23:22;101925.03;;;19.41;54.01
60654;BME280;46476;53.614;10.048;2022-07-06T04:25:48;101922.81;;;19.36;54.12
60654;BME280;46476;53.614;10.048;2022-07-06T04:28:13;101916.28;;;19.37;54.19
60654;BME280;46476;53.614;10.048;2022-07-06T04:30:38;101919.22;;;19.36;54.34
60654;BME280;46476;53.614;10.048;2022-07-06T04:33:04;101915.31;;;19.30;54.73
60654;BME280;46476;53.614;10.048;2022-07-06T04:35:29;101919.94;;;19.29;54.96
60654;BME280;46476;53.614;10.048;2022-07-06T04:37:55;101912.75;;;19.28;54.89
60654;BME280;46476;53.614;10.048;2022-07-06T04:40:20;101909.16;;;19.28;54.51
60654;BME280;46476;53.614;10.048;2022-07-06T04:42:46;101908.09;;;19.29;54.71
60654;BME280;46476;53.614;10.048;2022-07-06T04:45:12;101908.97;;;19.29;54.45
60654;BME280;46476;53.614;10.048;2022-07-06T04:47:37;101908.97;;;19.29;54.06
60654;BME280;46476;53.614;10.048;2022-07-06T04:50:03;101901.38;;;19.32;54.24
60654;BME280;46476;53.614;10.048;2022-07-06T04:52:29;101909.81;;;19.30;54.45
60654;BME280;46476;53.614;10.048;2022-07-06T04:54:55;101915.31;;;19.30;54.55
60654;BME280;46476;53.614;10.048;2022-07-06T04:57:20;101910.84;;;19.29;54.45
60654;BME280;46476;53.614;10.048;2022-07-06T04:59:46;101912.06;;;19.26;54.34
60654;BME280;46476;53.614;10.048;2022-07-06T05:02:11;101918.59;;;19.25;54.02
60654;BME280;46476;53.614;10.048;2022-07-06T05:04:37;101918.94;;;19.22;53.75
60654;BME280;46476;53.614;10.048;2022-07-06T05:07:02;101924.44;;;19.22;54.59
60654;BME280;46476;53.614;10.048;2022-07-06T05:09:28;101912.75;;;19.28;54.69
60654;BME280;46476;53.614;10.048;2022-07-06T05:11:53;101914.06;;;19.41;54.62
60654;BME280;46476;53.614;10.048;2022-07-06T05:14:18;101911.72;;;19.53;54.59
60654;BME280;46476;53.614;10.048;2022-07-06T05:16:43;101904.94;;;19.63;54.36
60654;BME280;46476;53.614;10.048;2022-07-06T05:19:09;101915.84;;;19.72;53.82
60654;BME280;46476;53.614;10.048;2022-07-06T05:21:34;101915.81;;;19.80;53.58
60654;BME280;46476;53.614;10.048;2022-07-06T05:23:59;101917.84;;;19.86;53.38
60654;BME280;46476;53.614;10.048;2022-07-06T05:26:25;101910.56;;;19.93;52.89
60654;BME280;46476;53.614;10.048;2022-07-06T05:28:50;101917.03;;;20.01;52.63
60654;BME280;46476;53.614;10.048;2022-07-06T05:31:15;101925.09;;;20.02;52.71
60654;BME280;46476;53.614;10.048;2022-07-06T05:33:40;101914.59;;;20.06;52.93
60654;BME280;46476;53.614;10.048;2022-07-06T05:36:06;101915.97;;;20.02;52.84
60654;BME280;46476;53.614;10.048;2022-07-06T05:38:32;101910.31;;;20.03;52.50
60654;BME280;46476;53.614;10.048;2022-07-06T05:40:57;101909.56;;;20.09;52.45
60654;BME280;46476;53.614;10.048;2022-07-06T05:43:23;101926.53;;;20.13;52.39
60654;BME280;46476;53.614;10.048;2022-07-06T05:45:48;101923.13;;;20.11;52.76
60654;BME280;46476;53.614;10.048;2022-07-06T05:48:13;101926.03;;;20.09;52.95
60654;BME280;46476;53.614;10.048;2022-07-06T05:50:57;101929.97;;;20.15;53.28
60654;BME280;46476;53.614;10.048;2022-07-06T05:53:22;101935.75;;;20.20;52.86
60654;BME280;46476;53.614;10.048;2022-07-06T05:55:48;101934.72;;;20.21;52.77
60654;BME280;46476;53.614;10.048;2022-07-06T05:58:14;101936.25;;;20.24;53.23
60654;BME280;46476;53.614;10.048;2022-07-06T06:00:39;101932.66;;;20.38;52.34
60654;BME280;46476;53.614;10.048;2022-07-06T06:03:05;101933.03;;;20.35;52.26
60654;BME280;46476;53.614;10.048;2022-07-06T06:05:30;101941.84;;;20.31;52.30
60654;BME280;46476;53.614;10.048;2022-07-06T06:07:55;101942.97;;;20.21;52.56
60654;BME280;46476;53.614;10.048;2022-07-06T06:10:21;101939.25;;;20.14;53.14
60654;BME280;46476;53.614;10.048;2022-07-06T06:12:49;101945.53;;;20.23;53.32
60654;BME280;46476;53.614;10.048;2022-07-06T06:15:14;101946.97;;;20.34;52.74
60654;BME280;46476;53.614;10.048;2022-07-06T06:17:40;101942.97;;;20.36;52.45
60654;BME280;46476;53.614;10.048;2022-07-06T06:20:08;101934.44;;;20.31;52.57
60654;BME280;46476;53.614;10.048;2022-07-06T06:22:51;101945.53;;;20.23;52.78
60654;BME280;46476;53.614;10.048;2022-07-06T06:25:18;101940.09;;;20.15;53.45
60654;BME280;46476;53.614;10.048;2022-07-06T06:27:45;101943.41;;;20.10;53.33
60654;BME280;46476;53.614;10.048;2022-07-06T06:30:11;101948.72;;;20.11;53.64
60654;BME280;46476;53.614;10.048;2022-07-06T06:32:37;101949.03;;;20.17;53.50
60654;BME280;46476;53.614;10.048;2022-07-06T06:35:03;101947.31;;;20.16;53.24
60654;BME280;46476;53.614;10.048;2022-07-06T06:37:29;101951.97;;;20.15;53.41
60654;BME280;46476;53.614;10.048;2022-07-06T06:39:54;101945.88;;;20.20;53.38
60654;BME280;46476;53.614;10.048;2022-07-06T06:42:19;101949.88;;;20.17;53.37
60654;BME280;46476;53.614;10.048;2022-07-06T06:44:45;101949.22;;;20.15;53.63
60654;BME280;46476;53.614;10.048;2022-07-06T06:47:10;101954.03;;;20.13;53.41
60654;BME280;46476;53.614;10.048;2022-07-06T06:49:35;101950.25;;;20.14;53.59
60654;BME280;46476;53.614;10.048;2022-07-06T06:52:00;101952.63;;;20.17;53.33
60654;BME280;46476;53.614;10.048;2022-07-06T06:54:26;101955.66;;;20.22;53.24
60654;BME280;46476;53.614;10.048;2022-07-06T06:56:51;101956.63;;;20.30;53.07
60654;BME280;46476;53.614;10.048;2022-07-06T06:59:16;101961.19;;;20.37;52.77
60654;BME280;46476;53.614;10.048;2022-07-06T07:01:42;101965.09;;;20.43;52.56
60654;BME280;46476;53.614;10.048;2022-07-06T07:04:07;101967.66;;;20.44;52.63
60654;BME280;46476;53.614;10.048;2022-07-06T07:06:33;101968.88;;;20.42;52.89
60654;BME280;46476;53.614;10.048;2022-07-06T07:08:58;101968.72;;;20.43;52.37
60654;BME280;46476;53.614;10.048;2022-07-06T07:11:23;101967.84;;;20.43;52.34
60654;BME280;46476;53.614;10.048;2022-07-06T07:13:49;101967.66;;;20.44;51.99
60654;BME280;46476;53.614;10.048;2022-07-06T07:16:14;101970.59;;;20.43;52.02
60654;BME280;46476;53.614;10.048;2022-07-06T07:18:40;101973.53;;;20.41;52.26
60654;BME280;46476;53.614;10.048;2022-07-06T07:21:05;101972.69;;;20.41;52.45
60654;BME280;46476;53.614;10.048;2022-07-06T07:23:30;101974.97;;;20.37;52.97
60654;BME280;46476;53.614;10.048;2022-07-06T07:25:56;101973.53;;;20.41;52.76
60654;BME280;46476;53.614;10.048;2022-07-06T07:28:21;101973.63;;;20.48;52.43
60654;BME280;46476;53.614;10.048;2022-07-06T07:30:46;101975.25;;;20.57;52.04
60654;BME280;46476;53.614;10.048;2022-07-06T07:33:12;101976.31;;;20.56;52.01
60654;BME280;46476;53.614;10.048;2022-07-06T07:35:37;101986.84;;;20.53;52.17
60654;BME280;46476;53.614;10.048;2022-07-06T07:38:02;101980.66;;;20.51;51.75
60654;BME280;46476;53.614;10.048;2022-07-06T07:40:28;101984.44;;;20.50;51.91
60654;BME280;46476;53.614;10.048;2022-07-06T07:42:53;101978.28;;;20.48;52.42
60654;BME280;46476;53.614;10.048;2022-07-06T07:45:18;101983.00;;;20.39;52.22
60654;BME280;46476;53.614;10.048;2022-07-06T07:47:44;101987.78;;;20.45;52.01
60654;BME280;46476;53.614;10.048;2022-07-06T07:50:09;101987.97;;;20.43;52.11
60654;BME280;46476;53.614;10.048;2022-07-06T07:52:35;101995.72;;;20.40;51.89
60654;BME280;46476;53.614;10.048;2022-07-06T07:55:00;101987.47;;;20.40;51.75
60654;BME280;46476;53.614;10.048;2022-07-06T07:57:26;101991.56;;;20.44;51.67
60654;BME280;46476;53.614;10.048;2022-07-06T07:59:51;101987.38;;;20.48;51.51
60654;BME280;46476;53.614;10.048;2022-07-06T08:02:17;101984.75;;;20.55;50.78
60654;BME280;46476;53.614;10.048;2022-07-06T08:04:42;101978.94;;;20.50;50.70
60654;BME280;46476;53.614;10.048;2022-07-06T08:07:07;101982.81;;;20.40;50.73
60654;BME280;46476;53.614;10.048;2022-07-06T08:09:33;101982.91;;;20.32;50.73
60654;BME280;46476;53.614;10.048;2022-07-06T08:11:58;101980.66;;;20.36;50.78
60654;BME280;46476;53.614;10.048;2022-07-06T08:14:24;101989.56;;;20.38;50.26
60654;BME280;46476;53.614;10.048;2022-07-06T08:16:50;101993.72;;;20.34;49.91
60654;BME280;46476;53.614;10.048;2022-07-06T08:19:16;101985.28;;;20.35;49.75
60654;BME280;46476;53.614;10.048;2022-07-06T08:21:42;101989.56;;;20.38;49.84
60654;BME280;46476;53.614;10.048;2022-07-06T08:24:08;101995.06;;;20.38;50.04
60654;BME280;46476;53.614;10.048;2022-07-06T08:26:33;101992.97;;;20.40;50.26
60654;BME280;46476;53.614;10.048;2022-07-06T08:28:59;101998.47;;;20.40;50.01
60654;BME280;46476;53.614;10.048;2022-07-06T08:31:25;101991.28;;;20.39;50.10
60654;BME280;46476;53.614;10.048;2022-07-06T08:33:52;101997.16;;;20.36;50.27
60654;BME280;46476;53.614;10.048;2022-07-06T08:36:18;101994.56;;;20.34;50.32
60654;BME280;46476;53.614;10.048;2022-07-06T08:38:44;101988.59;;;20.31;50.06
60654;BME280;46476;53.614;10.048;2022-07-06T08:41:09;101990.47;;;20.30;50.25
60654;BME280;46476;53.614;10.048;2022-07-06T08:43:35;101989.84;;;20.28;50.37
60654;BME280;46476;53.614;10.048;2022-07-06T08:46:02;101987.28;;;20.26;50.40
60654;BME280;46476;53.614;10.048;2022-07-06T08:48:33;101985.91;;;20.22;50.07
60654;BME280;46476;53.614;10.048;2022-07-06T08:51:01;101987.31;;;20.18;50.57
60654;BME280;46476;53.614;10.048;2022-07-06T08:53:27;102007.81;;;20.16;50.79
60654;BME280;46476;53.614;10.048;2022-07-06T08:55:52;102011.59;;;20.15;51.01
60654;BME280;46476;53.614;10.048;2022-07-06T08:58:19;102009.03;;;20.13;50.92
60654;BME280;46476;53.614;10.048;2022-07-06T09:00:44;102016.63;;;20.11;51.48
60654;BME280;46476;53.614;10.048;2022-07-06T09:03:11;102019.72;;;20.08;51.61
60654;BME280;46476;53.614;10.048;2022-07-06T09:05:37;102014.94;;;20.02;51.92
60654;BME280;46476;53.614;10.048;2022-07-06T09:08:04;102012.09;;;19.95;52.42
60654;BME280;46476;53.614;10.048;2022-07-06T09:10:29;102013.31;;;19.92;52.60
60654;BME280;46476;53.614;10.048;2022-07-06T09:13:02;102022.97;;;19.88;52.46
60654;BME280;46476;53.614;10.048;2022-07-06T09:15:28;102016.63;;;19.88;52.29
60654;BME280;46476;53.614;10.048;2022-07-06T09:17:55;102018.69;;;19.86;52.51
60654;BME280;46476;53.614;10.048;2022-07-06T09:20:21;102019.72;;;19.85;52.46
60654;BME280;46476;53.614;10.048;2022-07-06T09:22:46;102026.94;;;19.86;52.56
60654;BME280;46476;53.614;10.048;2022-07-06T09:25:15;102027.81;;;19.86;52.87
60654;BME280;46476;53.614;10.048;2022-07-06T09:27:43;102024.50;;;19.91;52.55
60654;BME280;46476;53.614;10.048;2022-07-06T09:30:13;102030.09;;;19.98;52.61
60654;BME280;46476;53.614;10.048;2022-07-06T09:32:42;102023.88;;;20.04;52.11
60654;BME280;46476;53.614;10.048;2022-07-06T09:35:39;102023.34;;;20.08;52.05
60654;BME280;46476;53.614;10.048;2022-07-06T09:38:13;102025.53;;;20.13;50.85
60654;BME280;46476;53.614;10.048;2022-07-06T09:40:44;102027.06;;;20.16;50.38
60654;BME280;46476;53.614;10.048;2022-07-06T09:43:15;102018.81;;;20.16;50.34
60654;BME280;46476;53.614;10.048;2022-07-06T09:45:43;102020.41;;;20.10;50.49
60654;BME280;46476;53.614;10.048;2022-07-06T09:48:24;102011.47;;;20.08;51.10
60654;BME280;46476;53.614;10.048;2022-07-06T09:50:57;102019.47;;;20.18;51.41
60654;BME280;46476;53.614;10.048;2022-07-06T09:53:25;102018.66;;;20.32;50.46
60654;BME280;46476;53.614;10.048;2022-07-06T09:55:53;102021.81;;;20.44;49.05
60654;BME280;46476;53.614;10.048;2022-07-06T09:58:19;102014.25;;;20.46;48.86
60654;BME280;46476;53.614;10.048;2022-07-06T10:03:12;102008.91;;;20.44;48.54
60654;BME280;46476;53.614;10.048;2022-07-06T10:08:05;102010.72;;;20.52;49.03
60654;BME280;46476;53.614;10.048;2022-07-06T10:10:31;102009.34;;;20.56;48.90
60654;BME280;46476;53.614;10.048;2022-07-06T10:12:58;102008.28;;;20.57;49.09
60654;BME280;46476;53.614;10.048;2022-07-06T10:15:26;102014.84;;;20.56;49.25
60654;BME280;46476;53.614;10.048;2022-07-06T10:17:51;102016.22;;;20.52;49.40
60654;BME280;46476;53.614;10.048;2022-07-06T10:20:18;102018.69;;;20.47;49.08
60654;BME280;46476;53.614;10.048;2022-07-06T10:22:46;102022.56;;;20.38;49.28
60654;BME280;46476;53.614;10.048;2022-07-06T10:25:12;102022.47;;;20.31;48.98
60654;BME280;46476;53.614;10.048;2022-07-06T10:27:39;102014.09;;;20.24;48.75
60654;BME280;46476;53.614;10.048;2022-07-06T10:30:04;102021.56;;;20.16;49.13
60654;BME280;46476;53.614;10.048;2022-07-06T10:32:30;102021.44;;;20.09;49.13
60654;BME280;46476;53.614;10.048;2022-07-06T10:34:56;102015.44;;;20.05;48.09
60654;BME280;46476;53.614;10.048;2022-07-06T10:37:23;102022.16;;;20.03;47.72
60654;BME280;46476;53.614;10.048;2022-07-06T10:39:51;102024.41;;;19.99;47.71
60654;BME280;46476;53.614;10.048;2022-07-06T10:43:09;102020.13;;;19.97;47.96
60654;BME280;46476;53.614;10.048;2022-07-06T10:50:39;102016.06;;;19.92;47.13
60654;BME280;46476;53.614;10.048;2022-07-06T10:53:15;102011.59;;;19.91;47.25
60654;BME280;46476;53.614;10.048;2022-07-06T10:55:46;102014.53;;;19.90;47.20
60654;BME280;46476;53.614;10.048;2022-07-06T10:58:13;102006.84;;;19.85;47.39
60654;BME280;46476;53.614;10.048;2022-07-06T11:00:54;102005.13;;;19.84;47.54
60654;BME280;46476;53.614;10.048;2022-07-06T11:06:06;102004.41;;;19.90;47.66
60654;BME280;46476;53.614;10.048;2022-07-06T11:16:27;101991.50;;;20.14;47.96
60654;BME280;46476;53.614;10.048;2022-07-06T11:19:11;101993.50;;;20.20;48.28
60654;BME280;46476;53.614;10.048;2022-07-06T11:21:46;101993.13;;;20.23;48.02
60654;BME280;46476;53.614;10.048;2022-07-06T11:24:15;101989.16;;;20.26;48.26
60654;BME280;46476;53.614;10.048;2022-07-06T11:26:46;101983.09;;;20.31;48.55
60654;BME280;46476;53.614;10.048;2022-07-06T11:29:12;101990.59;;;20.37;48.49
60654;BME280;46476;53.614;10.048;2022-07-06T11:31:45;101984.00;;;20.46;48.51
60654;BME280;46476;53.614;10.048;2022-07-06T11:34:14;101986.66;;;20.54;48.57
60654;BME280;46476;53.614;10.048;2022-07-06T11:36:42;101972.63;;;20.64;48.55
60654;BME280;46476;53.614;10.048;2022-07-06T11:39:07;101980.50;;;20.67;48.24
60654;BME280;46476;53.614;10.048;2022-07-06T11:41:33;101981.91;;;20.63;48.01
60654;BME280;46476;53.614;10.048;2022-07-06T11:44:00;101986.94;;;20.59;48.95
60654;BME280;46476;53.614;10.048;2022-07-06T11:46:29;101974.16;;;20.67;48.99
60654;BME280;46476;53.614;10.048;2022-07-06T11:48:57;101977.53;;;20.69;49.21
60654;BME280;46476;53.614;10.048;2022-07-06T11:51:25;101974.44;;;20.72;49.08
60654;BME280;46476;53.614;10.048;2022-07-06T11:53:52;101972.16;;;20.75;48.89
60654;BME280;46476;53.614;10.048;2022-07-06T11:56:19;101964.88;;;20.83;48.96
60654;BME280;46476;53.614;10.048;2022-07-06T11:58:49;101966.38;;;20.85;49.08
60654;BME280;46476;53.614;10.048;2022-07-06T12:01:14;101970.94;;;20.93;49.03
60654;BME280;46476;53.614;10.048;2022-07-06T12:03:41;101957.47;;;20.98;49.24
60654;BME280;46476;53.614;10.048;2022-07-06T12:06:22;101957.16;;;21.08;49.00
60654;BME280;46476;53.614;10.048;2022-07-06T12:08:53;101943.66;;;21.13;48.39
60654;BME280;46476;53.614;10.048;2022-07-06T12:11:29;101947.72;;;21.17;48.02
60654;BME280;46476;53.614;10.048;2022-07-06T12:13:57;101943.56;;;21.21;47.87
60654;BME280;46476;53.614;10.048;2022-07-06T12:16:32;101944.19;;;21.23;47.48
60654;BME280;46476;53.614;10.048;2022-07-06T12:19:00;101939.56;;;21.24;47.03
60654;BME280;46476;53.614;10.048;2022-07-06T12:21:26;101930.44;;;21.23;47.03
60654;BME280;46476;53.614;10.048;2022-07-06T12:23:52;101935.31;;;21.21;47.40
60654;BME280;46476;53.614;10.048;2022-07-06T12:26:20;101929.78;;;21.21;47.30
60654;BME280;46476;53.614;10.048;2022-07-06T12:29:05;101938.06;;;21.21;47.31
60654;BME280;46476;53.614;10.048;2022-07-06T12:34:01;101930.44;;;21.23;46.33
60654;BME280;46476;53.614;10.048;2022-07-06T12:36:26;101931.66;;;21.21;46.64
60654;BME280;46476;53.614;10.048;2022-07-06T12:38:52;101925.31;;;21.20;46.71
60654;BME280;46476;53.614;10.048;2022-07-06T12:41:29;101931.88;;;21.19;46.90
60654;BME280;46476;53.614;10.048;2022-07-06T12:44:08;101941.16;;;21.18;46.42
60654;BME280;46476;53.614;10.048;2022-07-06T12:46:36;101942.88;;;21.19;46.82
60654;BME280;46476;53.614;10.048;2022-07-06T12:49:22;101946.75;;;21.25;45.92
60654;BME280;46476;53.614;10.048;2022-07-06T12:54:25;101933.84;;;21.25;44.74
60654;BME280;46476;53.614;10.048;2022-07-06T12:57:11;101928.56;;;21.24;45.31
60654;BME280;46476;53.614;10.048;2022-07-06T13:02:17;101937.66;;;21.24;44.99
60654;BME280;46476;53.614;10.048;2022-07-06T13:04:43;101929.59;;;21.23;45.22
60654;BME280;46476;53.614;10.048;2022-07-06T13:07:18;101929.31;;;21.18;45.74